Time;durP1;ratioP1;P1;durP2;ratioP2;P2;SDS_P1;SDS_P2;PMS_P1;PMS_P2;Temp;Humidity;BMP_temperature;BMP_pressure;BME280_temperature;BME280_humidity;BME280_pressure;Samples;Min_cycle;Max_cycle;Signal;HPM_P1;HPM_P2
2022/08/05 00:02:18;;;;;;;0.70;0.70;;;;;;;;;;5053063;28;20410;-75
2022/08/05 00:04:46;;;;;;;0.70;0.60;;;;;;;;;;5053314;28;20435;-76
2022/08/05 00:07:21;;;;;;;1.37;1.10;;;;;;;;;;5067137;28;20476;-76
2022/08/05 00:10:09;;;;;;;1.13;1.03;;;;;;;;;;5076990;28;20430;-76
2022/08/05 00:12:37;;;;;;;0.70;0.70;;;;;;;;;;5077688;28;20421;-76
2022/08/05 00:15:22;;;;;;;0.70;0.60;;;;;;;;;;5074724;28;20444;-75
2022/08/05 00:18:08;;;;;;;0.70;0.60;;;;;;;;;;5076119;28;20434;-76
2022/08/05 00:20:47;;;;;;;0.70;0.70;;;;;;;;;;5076280;28;20466;-77
2022/08/05 00:23:14;;;;;;;0.70;0.70;;;;;;;;;;5076805;28;21010;-76
2022/08/05 00:25:41;;;;;;;0.80;0.80;;;;;;;;;;5062733;28;20457;-76
2022/08/05 00:28:13;;;;;;;0.70;0.67;;;;;;;;;;5056126;28;20430;-76
2022/08/05 00:30:46;;;;;;;0.70;0.70;;;;;;;;;;5056654;28;20504;-76
2022/08/05 00:33:19;;;;;;;0.80;0.70;;;;;;;;;;5040494;28;20576;-76
2022/08/05 00:36:05;;;;;;;1.20;1.10;;;;;;;;;;5057416;28;20449;-76
2022/08/05 00:38:52;;;;;;;0.73;0.70;;;;;;;;;;5057625;28;20452;-76
2022/08/05 00:41:28;;;;;;;0.70;0.70;;;;;;;;;;5076931;28;20420;-76
2022/08/05 00:44:17;;;;;;;0.70;0.63;;;;;;;;;;5075203;28;20421;-76
2022/08/05 00:46:46;;;;;;;0.70;0.60;;;;;;;;;;5074465;28;20454;-75
2022/08/05 00:49:21;;;;;;;0.90;0.90;;;;;;;;;;5051328;28;20443;-76
2022/08/05 00:51:50;;;;;;;0.70;0.70;;;;;;;;;;5076628;28;21010;-76
2022/08/05 00:54:22;;;;;;;0.70;0.70;;;;;;;;;;5075397;28;20492;-75
2022/08/05 00:56:56;;;;;;;0.70;0.63;;;;;;;;;;5072198;28;20455;-75
2022/08/05 00:59:28;;;;;;;0.70;0.60;;;;;;;;;;5054816;28;20458;-76
2022/08/05 01:02:04;;;;;;;0.70;0.70;;;;;;;;;;5055978;28;20417;-75
2022/08/05 01:04:35;;;;;;;0.70;0.60;;;;;;;;;;5054998;28;20452;-75
2022/08/05 01:07:09;;;;;;;0.70;0.60;;;;;;;;;;5060842;28;20471;-75
2022/08/05 01:09:42;;;;;;;0.70;0.70;;;;;;;;;;5075406;28;20439;-76
2022/08/05 01:12:12;;;;;;;0.70;0.70;;;;;;;;;;5075268;28;20416;-76
2022/08/05 01:14:54;;;;;;;0.70;0.70;;;;;;;;;;5054925;28;20454;-75
2022/08/05 01:17:30;;;;;;;0.70;0.70;;;;;;;;;;5054695;28;20451;-75
2022/08/05 01:20:25;;;;;;;0.70;0.70;;;;;;;;;;5074948;28;20435;-75
2022/08/05 01:23:01;;;;;;;0.70;0.60;;;;;;;;;;5074898;28;20454;-76
2022/08/05 01:26:02;;;;;;;0.93;0.93;;;;;;;;;;5073159;28;20553;-75
2022/08/05 01:28:36;;;;;;;0.70;0.63;;;;;;;;;;5073912;28;20439;-75
2022/08/05 01:31:08;;;;;;;0.70;0.60;;;;;;;;;;5036012;28;20455;-75
2022/08/05 01:33:44;;;;;;;0.70;0.70;;;;;;;;;;5055885;28;20408;-75
2022/08/05 01:36:19;;;;;;;0.70;0.60;;;;;;;;;;5074509;28;20448;-75
2022/08/05 01:38:55;;;;;;;0.70;0.70;;;;;;;;;;5074829;28;20517;-75
2022/08/05 01:41:33;;;;;;;0.70;0.70;;;;;;;;;;5053600;28;20911;-76
2022/08/05 01:44:05;;;;;;;0.70;0.70;;;;;;;;;;5060129;28;20944;-75
2022/08/05 01:46:39;;;;;;;0.80;0.70;;;;;;;;;;5074746;28;20457;-75
2022/08/05 01:49:15;;;;;;;0.70;0.60;;;;;;;;;;5068387;28;20528;-75
2022/08/05 01:52:00;;;;;;;0.70;0.70;;;;;;;;;;5066917;28;20475;-75
2022/08/05 01:54:47;;;;;;;0.70;0.70;;;;;;;;;;5054836;28;20442;-76
2022/08/05 01:57:30;;;;;;;0.70;0.70;;;;;;;;;;5074008;28;20907;-75
2022/08/05 02:00:23;;;;;;;0.97;0.93;;;;;;;;;;5063390;28;20429;-76
2022/08/05 02:03:01;;;;;;;0.70;0.60;;;;;;;;;;5055513;28;20515;-76
2022/08/05 02:05:35;;;;;;;1.57;1.47;;;;;;;;;;5054871;28;20485;-76
2022/08/05 02:08:10;;;;;;;0.70;0.60;;;;;;;;;;5053617;28;20492;-75
2022/08/05 02:10:59;;;;;;;0.70;0.70;;;;;;;;;;5053874;28;20436;-75
2022/08/05 02:13:32;;;;;;;0.80;0.80;;;;;;;;;;5074734;28;20848;-75
2022/08/05 02:16:27;;;;;;;0.70;0.70;;;;;;;;;;5060001;28;20438;-76
2022/08/05 02:18:58;;;;;;;1.10;1.00;;;;;;;;;;5072594;28;20445;-75
2022/08/05 02:21:29;;;;;;;1.03;1.03;;;;;;;;;;5056912;28;20517;-75
2022/08/05 02:24:10;;;;;;;0.70;0.60;;;;;;;;;;5073599;28;20844;-75
2022/08/05 02:26:48;;;;;;;0.70;0.60;;;;;;;;;;5073983;28;20543;-76
2022/08/05 02:29:22;;;;;;;0.70;0.70;;;;;;;;;;5050238;28;20543;-75
2022/08/05 02:32:12;;;;;;;0.70;0.60;;;;;;;;;;5052293;28;20856;-73
2022/08/05 02:34:56;;;;;;;0.70;0.70;;;;;;;;;;5054591;28;20419;-73
2022/08/05 02:37:35;;;;;;;2.20;1.43;;;;;;;;;;5054927;28;20557;-72
2022/08/05 02:40:07;;;;;;;0.70;0.70;;;;;;;;;;5063521;28;20784;-74
2022/08/05 02:42:38;;;;;;;0.90;0.90;;;;;;;;;;5053880;28;20445;-74
2022/08/05 02:45:12;;;;;;;0.70;0.70;;;;;;;;;;5053892;28;20481;-71
2022/08/05 02:47:51;;;;;;;0.80;0.80;;;;;;;;;;5059508;28;20501;-74
2022/08/05 02:50:37;;;;;;;0.90;0.90;;;;;;;;;;5054437;28;20420;-72
2022/08/05 02:53:12;;;;;;;0.83;0.83;;;;;;;;;;5053231;28;20451;-74
2022/08/05 02:55:46;;;;;;;0.80;0.80;;;;;;;;;;5054854;28;20483;-73
2022/08/05 02:58:22;;;;;;;0.70;0.67;;;;;;;;;;5064393;28;20460;-74
2022/08/05 03:00:59;;;;;;;0.77;0.77;;;;;;;;;;5056554;28;20426;-74
2022/08/05 03:03:31;;;;;;;0.80;0.70;;;;;;;;;;5054189;28;20417;-74
2022/08/05 03:06:21;;;;;;;0.70;0.70;;;;;;;;;;5053217;28;20543;-74
2022/08/05 03:09:11;;;;;;;0.70;0.70;;;;;;;;;;5052162;28;21119;-74
2022/08/05 03:11:56;;;;;;;1.30;1.10;;;;;;;;;;5085000;28;20478;-73
2022/08/05 03:14:29;;;;;;;0.80;0.80;;;;;;;;;;5052934;28;20435;-74
2022/08/05 03:17:13;;;;;;;0.70;0.60;;;;;;;;;;5052725;28;20438;-75
2022/08/05 03:19:44;;;;;;;0.70;0.60;;;;;;;;;;5064159;28;20478;-75
2022/08/05 03:22:18;;;;;;;0.70;0.70;;;;;;;;;;5073651;28;20524;-74
2022/08/05 03:24:59;;;;;;;1.17;0.93;;;;;;;;;;5037583;28;20428;-74
2022/08/05 03:27:50;;;;;;;0.70;0.60;;;;;;;;;;5045510;28;20469;-75
2022/08/05 03:30:27;;;;;;;0.70;0.70;;;;;;;;;;5058464;28;20479;-74
2022/08/05 03:33:01;;;;;;;0.70;0.67;;;;;;;;;;5051979;28;20439;-74
2022/08/05 03:35:31;;;;;;;2.17;1.43;;;;;;;;;;5052250;28;20431;-73
2022/08/05 03:38:07;;;;;;;0.97;0.97;;;;;;;;;;5067028;28;20876;-74
2022/08/05 03:40:38;;;;;;;1.03;1.03;;;;;;;;;;5072456;28;20451;-74
2022/08/05 03:43:05;;;;;;;1.00;1.00;;;;;;;;;;5063762;28;20477;-74
2022/08/05 03:45:53;;;;;;;1.10;0.87;;;;;;;;;;5051667;28;20854;-74
2022/08/05 03:48:24;;;;;;;1.23;1.13;;;;;;;;;;5058636;28;20924;-74
2022/08/05 03:50:54;;;;;;;0.70;0.60;;;;;;;;;;5073346;28;20465;-74
2022/08/05 03:53:44;;;;;;;3.03;0.90;;;;;;;;;;5059312;28;20860;-75
2022/08/05 03:56:34;;;;;;;0.70;0.70;;;;;;;;;;5072620;28;20567;-75
2022/08/05 03:59:02;;;;;;;0.70;0.70;;;;;;;;;;5053667;28;20420;-75
2022/08/05 04:01:31;;;;;;;1.17;0.90;;;;;;;;;;5053060;28;20799;-74
2022/08/05 04:03:59;;;;;;;1.00;0.97;;;;;;;;;;5053385;28;20543;-73
2022/08/05 04:06:37;;;;;;;0.70;0.70;;;;;;;;;;5052534;28;20535;-74
2022/08/05 04:09:14;;;;;;;1.73;1.63;;;;;;;;;;5051382;28;20442;-73
2022/08/05 04:11:45;;;;;;;1.60;1.50;;;;;;;;;;5052965;28;20434;-74
2022/08/05 04:14:18;;;;;;;0.80;0.80;;;;;;;;;;5036680;28;20830;-74
2022/08/05 04:16:56;;;;;;;0.70;0.70;;;;;;;;;;5053799;28;20919;-73
2022/08/05 04:19:23;;;;;;;1.53;1.43;;;;;;;;;;5052280;28;20534;-73
2022/08/05 04:21:52;;;;;;;1.57;1.47;;;;;;;;;;5051667;28;20497;-74
2022/08/05 04:24:37;;;;;;;0.70;0.60;;;;;;;;;;5051434;28;20439;-73
2022/08/05 04:27:11;;;;;;;0.80;0.80;;;;;;;;;;5056312;28;20452;-73
2022/08/05 04:29:38;;;;;;;0.87;0.87;;;;;;;;;;5064969;28;20453;-73
2022/08/05 04:32:05;;;;;;;1.10;1.00;;;;;;;;;;5053339;28;20435;-74
2022/08/05 04:34:33;;;;;;;3.23;3.10;;;;;;;;;;5051676;28;20444;-73
2022/08/05 04:37:09;;;;;;;1.50;1.40;;;;;;;;;;5061871;28;20474;-73
2022/08/05 04:39:36;;;;;;;1.20;1.10;;;;;;;;;;5072724;28;20519;-73
2022/08/05 04:42:05;;;;;;;0.70;0.70;;;;;;;;;;5059256;28;20446;-74
2022/08/05 04:44:32;;;;;;;0.77;0.77;;;;;;;;;;5053763;28;20527;-74
2022/08/05 04:46:58;;;;;;;1.40;1.30;;;;;;;;;;5053172;28;20482;-73
2022/08/05 04:49:35;;;;;;;0.90;0.90;;;;;;;;;;5052891;28;20411;-73
2022/08/05 04:52:23;;;;;;;1.20;1.10;;;;;;;;;;5052728;28;20553;-73
2022/08/05 04:54:53;;;;;;;1.67;1.57;;;;;;;;;;5063740;28;20449;-73
2022/08/05 04:57:23;;;;;;;2.00;1.73;;;;;;;;;;5075618;28;20423;-73
2022/08/05 04:59:54;;;;;;;1.43;1.33;;;;;;;;;;5066688;28;20446;-73
2022/08/05 05:02:21;;;;;;;1.73;1.63;;;;;;;;;;5060513;28;20495;-73
2022/08/05 05:05:07;;;;;;;2.43;2.27;;;;;;;;;;5055050;28;20536;-73
2022/08/05 05:07:59;;;;;;;1.67;1.57;;;;;;;;;;5056520;28;20455;-73
2022/08/05 05:10:26;;;;;;;2.80;2.60;;;;;;;;;;5055559;28;20514;-73
2022/08/05 05:12:55;;;;;;;2.10;1.17;;;;;;;;;;5062488;28;20950;-73
2022/08/05 05:15:23;;;;;;;0.80;0.80;;;;;;;;;;5075880;28;20822;-73
2022/08/05 05:18:11;;;;;;;1.23;1.13;;;;;;;;;;5059615;28;20427;-73
2022/08/05 05:20:41;;;;;;;2.10;1.00;;;;;;;;;;5071421;28;20812;-74
2022/08/05 05:23:13;;;;;;;1.57;1.47;;;;;;;;;;5055807;28;20418;-73
2022/08/05 05:25:45;;;;;;;0.73;0.70;;;;;;;;;;5054505;28;20430;-73
2022/08/05 05:28:13;;;;;;;1.67;1.57;;;;;;;;;;5056047;28;20476;-73
2022/08/05 05:30:41;;;;;;;1.37;1.27;;;;;;;;;;5056142;28;20438;-73
2022/08/05 05:33:07;;;;;;;1.20;1.10;;;;;;;;;;5054382;28;20523;-73
2022/08/05 05:35:46;;;;;;;2.00;1.90;;;;;;;;;;5053927;28;20469;-73
2022/08/05 05:38:15;;;;;;;0.80;0.80;;;;;;;;;;5054248;28;20439;-74
2022/08/05 05:40:53;;;;;;;2.37;2.17;;;;;;;;;;5054138;28;20428;-73
2022/08/05 05:43:21;;;;;;;2.50;2.30;;;;;;;;;;5053902;28;20466;-73
2022/08/05 05:46:08;;;;;;;0.87;0.87;;;;;;;;;;5055218;28;20449;-73
2022/08/05 05:48:46;;;;;;;1.63;1.53;;;;;;;;;;5055359;28;20427;-73
2022/08/05 05:51:17;;;;;;;5.53;1.80;;;;;;;;;;5047083;28;20494;-75
2022/08/05 05:53:45;;;;;;;1.10;0.90;;;;;;;;;;5074547;28;20423;-74
2022/08/05 05:56:25;;;;;;;0.80;0.80;;;;;;;;;;5062719;28;20443;-74
2022/08/05 05:59:00;;;;;;;4.73;1.73;;;;;;;;;;5037746;28;20433;-74
2022/08/05 06:01:29;;;;;;;3.00;2.90;;;;;;;;;;5064194;28;20935;-75
2022/08/05 06:04:05;;;;;;;0.80;0.80;;;;;;;;;;5058292;28;20826;-74
2022/08/05 06:06:32;;;;;;;5.30;1.93;;;;;;;;;;5056615;28;20469;-75
2022/08/05 06:09:02;;;;;;;0.80;0.80;;;;;;;;;;5053078;28;20434;-74
2022/08/05 06:11:29;;;;;;;1.70;1.60;;;;;;;;;;5052510;28;20423;-73
2022/08/05 06:13:56;;;;;;;0.77;0.77;;;;;;;;;;5053418;28;20415;-73
2022/08/05 06:16:26;;;;;;;1.63;1.53;;;;;;;;;;5052532;28;20430;-73
2022/08/05 06:19:03;;;;;;;4.73;2.97;;;;;;;;;;5051512;28;20430;-73
2022/08/05 06:21:32;;;;;;;4.03;1.17;;;;;;;;;;5053621;28;20968;-73
2022/08/05 06:24:05;;;;;;;0.70;0.70;;;;;;;;;;5053942;28;20423;-74
2022/08/05 06:26:37;;;;;;;1.53;1.43;;;;;;;;;;5054448;28;20423;-74
2022/08/05 06:29:04;;;;;;;1.27;1.17;;;;;;;;;;5053481;28;20961;-73
2022/08/05 06:31:51;;;;;;;0.70;0.67;;;;;;;;;;5055399;28;20809;-74
2022/08/05 06:34:18;;;;;;;6.57;2.67;;;;;;;;;;5052966;28;20562;-73
2022/08/05 06:36:45;;;;;;;6.53;2.90;;;;;;;;;;5053082;28;20799;-73
2022/08/05 06:39:25;;;;;;;4.83;1.80;;;;;;;;;;5054841;28;20768;-73
2022/08/05 06:41:54;;;;;;;1.20;1.10;;;;;;;;;;5053344;28;20456;-73
2022/08/05 06:44:24;;;;;;;1.30;1.20;;;;;;;;;;5053983;28;20941;-74
2022/08/05 06:46:51;;;;;;;0.70;0.70;;;;;;;;;;5054074;28;20431;-74
2022/08/05 06:49:19;;;;;;;2.83;2.63;;;;;;;;;;5052715;28;20522;-73
2022/08/05 06:52:06;;;;;;;1.23;1.10;;;;;;;;;;5054107;28;20487;-73
2022/08/05 06:54:54;;;;;;;3.50;3.20;;;;;;;;;;5051934;28;20862;-74
2022/08/05 06:57:21;;;;;;;6.10;2.50;;;;;;;;;;5052933;28;20439;-74
2022/08/05 07:00:08;;;;;;;1.73;1.63;;;;;;;;;;5051822;28;20439;-75
2022/08/05 07:02:40;;;;;;;0.90;0.90;;;;;;;;;;5053019;28;20420;-74
2022/08/05 07:05:07;;;;;;;0.80;0.80;;;;;;;;;;5053324;28;20948;-76
2022/08/05 07:07:42;;;;;;;2.80;2.60;;;;;;;;;;5053049;28;20836;-75
2022/08/05 07:10:14;;;;;;;1.50;1.40;;;;;;;;;;5053108;28;20453;-75
2022/08/05 07:18:30;;;;;;;2.23;2.13;;;;;;;;;;5052738;28;20489;-74
2022/08/05 07:20:58;;;;;;;0.70;0.60;;;;;;;;;;5051934;28;20442;-73
2022/08/05 07:23:31;;;;;;;2.20;2.00;;;;;;;;;;5052733;28;20440;-75
2022/08/05 07:26:01;;;;;;;1.03;0.97;;;;;;;;;;5052778;28;20436;-75
2022/08/05 07:28:28;;;;;;;3.33;3.13;;;;;;;;;;5053053;28;20958;-75
2022/08/05 07:30:55;;;;;;;1.30;1.20;;;;;;;;;;5052446;28;20911;-75
2022/08/05 07:33:21;;;;;;;3.27;2.27;;;;;;;;;;5051997;28;20506;-75
2022/08/05 07:36:03;;;;;;;1.80;1.70;;;;;;;;;;5053701;28;20450;-75
2022/08/05 07:38:47;;;;;;;0.90;0.80;;;;;;;;;;5051954;28;20797;-75
2022/08/05 07:41:20;;;;;;;0.90;0.80;;;;;;;;;;5051699;28;20448;-75
2022/08/05 07:44:08;;;;;;;1.40;1.30;;;;;;;;;;5054128;28;20416;-75
2022/08/05 07:46:44;;;;;;;1.87;1.77;;;;;;;;;;5052667;28;20420;-75
2022/08/05 07:49:14;;;;;;;2.93;2.73;;;;;;;;;;5053167;28;20950;-75
2022/08/05 07:51:41;;;;;;;1.57;1.47;;;;;;;;;;5051529;28;20812;-75
2022/08/05 07:54:22;;;;;;;4.10;1.97;;;;;;;;;;5052466;28;20445;-75
2022/08/05 07:56:57;;;;;;;1.27;1.20;;;;;;;;;;5053075;28;20420;-75
2022/08/05 07:59:44;;;;;;;1.20;1.10;;;;;;;;;;5052348;28;20436;-73
2022/08/05 08:02:14;;;;;;;3.43;1.00;;;;;;;;;;5053785;28;20511;-75
2022/08/05 08:04:44;;;;;;;1.40;1.30;;;;;;;;;;5053020;28;21007;-74
2022/08/05 08:07:11;;;;;;;1.13;1.03;;;;;;;;;;5035460;28;20499;-73
2022/08/05 08:09:38;;;;;;;24.97;3.23;;;;;;;;;;5051170;28;20435;-74
2022/08/05 08:12:06;;;;;;;8.20;3.23;;;;;;;;;;5053485;28;20843;-73
2022/08/05 08:14:52;;;;;;;3.33;2.27;;;;;;;;;;5052174;28;20931;-73
2022/08/05 08:17:18;;;;;;;1.53;1.43;;;;;;;;;;5051432;28;20417;-73
2022/08/05 08:19:47;;;;;;;3.63;2.07;;;;;;;;;;5052268;28;20977;-74
2022/08/05 08:22:35;;;;;;;2.80;1.47;;;;;;;;;;5052480;28;20487;-75
2022/08/05 08:25:01;;;;;;;2.73;2.60;;;;;;;;;;5053938;28;20457;-75
2022/08/05 08:27:44;;;;;;;2.77;2.63;;;;;;;;;;5053832;28;20507;-74
2022/08/05 08:30:17;;;;;;;1.73;1.53;;;;;;;;;;5056958;28;20833;-74
2022/08/05 08:32:59;;;;;;;4.83;2.87;;;;;;;;;;5040582;28;20843;-74
2022/08/05 08:35:30;;;;;;;1.17;1.07;;;;;;;;;;5055670;28;20417;-74
2022/08/05 08:38:06;;;;;;;3.37;1.67;;;;;;;;;;5057073;28;20549;-73
2022/08/05 08:40:34;;;;;;;5.33;3.67;;;;;;;;;;5056679;28;20432;-73
2022/08/05 08:43:03;;;;;;;2.60;2.40;;;;;;;;;;5056936;28;20480;-75
2022/08/05 08:45:51;;;;;;;1.10;1.10;;;;;;;;;;5055752;28;20788;-75
2022/08/05 08:48:19;;;;;;;0.97;0.97;;;;;;;;;;5055366;28;20821;-73
2022/08/05 08:51:06;;;;;;;1.63;1.53;;;;;;;;;;5055819;28;20480;-74
2022/08/05 08:53:53;;;;;;;1.37;1.27;;;;;;;;;;5053962;28;20442;-74
2022/08/05 08:56:20;;;;;;;0.70;0.60;;;;;;;;;;5056381;28;20951;-73
2022/08/05 08:58:49;;;;;;;4.30;1.70;;;;;;;;;;5038694;28;20980;-73
2022/08/05 09:01:16;;;;;;;0.60;0.60;;;;;;;;;;5055979;28;20493;-73
2022/08/05 09:03:46;;;;;;;1.30;1.20;;;;;;;;;;5055177;28;20431;-73
2022/08/05 09:06:13;;;;;;;1.20;1.10;;;;;;;;;;5054745;28;20468;-73
2022/08/05 09:08:46;;;;;;;0.97;0.97;;;;;;;;;;5052503;28;20845;-74
2022/08/05 09:11:13;;;;;;;0.73;0.70;;;;;;;;;;5044602;28;21015;-73
2022/08/05 09:13:42;;;;;;;0.80;0.80;;;;;;;;;;5055225;28;20454;-73
2022/08/05 09:16:30;;;;;;;0.70;0.60;;;;;;;;;;5055154;28;20427;-73
2022/08/05 09:18:57;;;;;;;1.20;1.10;;;;;;;;;;5054850;28;20515;-73
2022/08/05 09:21:27;;;;;;;0.80;0.80;;;;;;;;;;5054739;28;20458;-74
2022/08/05 09:24:14;;;;;;;1.57;1.47;;;;;;;;;;5056238;28;20762;-73
2022/08/05 09:26:45;;;;;;;1.00;1.00;;;;;;;;;;5037456;28;20447;-74
2022/08/05 09:29:13;;;;;;;1.30;1.20;;;;;;;;;;5054779;28;20479;-74
2022/08/05 09:34:48;;;;;;;9.20;2.63;;;;;;;;;;5091394;27;20623;-74
2022/08/05 09:37:16;;;;;;;0.90;0.90;;;;;;;;;;5090130;28;20455;-73
2022/08/05 09:40:03;;;;;;;0.70;0.70;;;;;;;;;;5067349;28;20456;-74
2022/08/05 09:42:42;;;;;;;3.37;1.73;;;;;;;;;;5069545;28;20430;-73
2022/08/05 09:45:15;;;;;;;1.23;1.00;;;;;;;;;;5069658;28;20439;-74
2022/08/05 09:48:25;;;;;;;1.43;1.33;;;;;;;;;;5069671;28;20450;-74
2022/08/05 09:50:56;;;;;;;0.70;0.63;;;;;;;;;;5069161;28;20564;-74
2022/08/05 09:53:23;;;;;;;0.90;0.90;;;;;;;;;;5069539;28;20524;-75
2022/08/05 09:56:10;;;;;;;1.53;1.27;;;;;;;;;;5070616;28;20469;-74
2022/08/05 09:58:39;;;;;;;0.70;0.70;;;;;;;;;;5068405;28;20428;-73
2022/08/05 10:01:10;;;;;;;0.70;0.63;;;;;;;;;;5089267;28;20427;-74
2022/08/05 10:03:55;;;;;;;1.47;1.37;;;;;;;;;;5090952;28;20479;-74
2022/08/05 10:06:26;;;;;;;0.93;0.93;;;;;;;;;;5090688;28;20449;-74
2022/08/05 10:09:08;;;;;;;1.27;1.20;;;;;;;;;;5089630;28;20438;-74
2022/08/05 10:11:53;;;;;;;6.47;1.10;;;;;;;;;;5087348;28;20983;-74
2022/08/05 10:14:22;;;;;;;0.80;0.80;;;;;;;;;;5090015;28;20988;-74
2022/08/05 10:16:55;;;;;;;0.90;0.80;;;;;;;;;;5071857;28;20467;-74
2022/08/05 10:19:22;;;;;;;0.97;0.97;;;;;;;;;;5088568;28;20465;-75
2022/08/05 10:21:58;;;;;;;0.70;0.70;;;;;;;;;;5088413;28;20530;-74
2022/08/05 10:24:25;;;;;;;0.70;0.70;;;;;;;;;;5090417;28;20918;-74
2022/08/05 10:26:55;;;;;;;0.80;0.80;;;;;;;;;;5088985;28;20483;-75
2022/08/05 10:29:31;;;;;;;0.80;0.80;;;;;;;;;;5090684;28;20426;-75
2022/08/05 10:32:18;;;;;;;0.70;0.60;;;;;;;;;;5089628;28;20431;-76
2022/08/05 10:35:07;;;;;;;2.07;1.43;;;;;;;;;;5089722;28;20891;-75
2022/08/05 10:37:36;;;;;;;1.07;0.97;;;;;;;;;;5071319;28;20822;-75
2022/08/05 10:40:15;;;;;;;1.40;1.30;;;;;;;;;;5091415;28;20439;-75
2022/08/05 10:42:46;;;;;;;0.70;0.70;;;;;;;;;;5091912;28;20414;-74
2022/08/05 10:45:14;;;;;;;1.30;1.20;;;;;;;;;;5080785;28;20431;-75
2022/08/05 10:47:56;;;;;;;0.97;0.97;;;;;;;;;;5077901;28;20418;-75
2022/08/05 10:50:56;;;;;;;0.70;0.70;;;;;;;;;;5063816;28;20502;-75
2022/08/05 10:53:33;;;;;;;0.70;0.60;;;;;;;;;;5054401;28;20795;-74
2022/08/05 10:56:04;;;;;;;0.70;0.70;;;;;;;;;;5038065;28;20513;-74
2022/08/05 10:59:03;;;;;;;0.73;0.73;;;;;;;;;;5055182;28;20432;-74
2022/08/05 11:01:40;;;;;;;1.10;0.90;;;;;;;;;;5076309;28;20419;-75
2022/08/05 11:04:27;;;;;;;1.83;1.73;;;;;;;;;;5075521;28;20412;-74
2022/08/05 11:07:05;;;;;;;0.70;0.70;;;;;;;;;;5072151;28;20459;-75
2022/08/05 11:09:37;;;;;;;0.70;0.70;;;;;;;;;;5077851;28;20465;-74
2022/08/05 11:12:31;;;;;;;1.00;1.00;;;;;;;;;;5071216;28;20454;-75
2022/08/05 11:15:04;;;;;;;0.97;0.90;;;;;;;;;;5064088;28;20483;-75
2022/08/05 11:17:46;;;;;;;0.80;0.80;;;;;;;;;;5055009;28;20423;-75
2022/08/05 11:20:37;;;;;;;1.03;0.97;;;;;;;;;;5056555;28;20960;-75
2022/08/05 11:23:29;;;;;;;0.90;0.70;;;;;;;;;;5039746;28;20471;-74
2022/08/05 11:26:21;;;;;;;1.00;0.90;;;;;;;;;;5056862;28;20410;-74
2022/08/05 11:29:00;;;;;;;0.70;0.70;;;;;;;;;;5062129;28;20412;-76
2022/08/05 11:31:40;;;;;;;1.33;1.23;;;;;;;;;;5079893;28;20504;-75
2022/08/05 11:34:38;;;;;;;0.70;0.60;;;;;;;;;;5080591;28;20555;-75
2022/08/05 11:37:39;;;;;;;3.63;1.27;;;;;;;;;;5081223;28;20451;-75
2022/08/05 11:40:43;;;;;;;0.70;0.60;;;;;;;;;;5081015;28;20458;-75
2022/08/05 11:43:20;;;;;;;0.70;0.60;;;;;;;;;;5062583;28;20458;-75
2022/08/05 11:46:07;;;;;;;0.80;0.80;;;;;;;;;;5079048;28;20439;-75
2022/08/05 11:48:55;;;;;;;0.70;0.70;;;;;;;;;;5078447;28;20419;-75
2022/08/05 11:51:23;;;;;;;0.77;0.70;;;;;;;;;;5076903;28;20443;-75
2022/08/05 11:54:10;;;;;;;0.70;0.60;;;;;;;;;;5078951;28;20462;-75
2022/08/05 11:56:43;;;;;;;1.10;1.00;;;;;;;;;;5074213;28;20947;-75
2022/08/05 11:59:18;;;;;;;0.80;0.70;;;;;;;;;;5075437;28;20435;-74
2022/08/05 12:01:54;;;;;;;1.37;1.07;;;;;;;;;;5074109;28;20434;-75
2022/08/05 12:04:22;;;;;;;0.80;0.70;;;;;;;;;;5075096;28;20431;-75
2022/08/05 12:06:52;;;;;;;0.70;0.60;;;;;;;;;;5057258;28;20470;-76
2022/08/05 12:09:22;;;;;;;0.80;0.77;;;;;;;;;;5070586;28;20442;-75
2022/08/05 12:12:09;;;;;;;0.70;0.70;;;;;;;;;;5074034;28;20497;-74
2022/08/05 12:14:38;;;;;;;0.90;0.70;;;;;;;;;;5073559;28;20534;-74
2022/08/05 12:17:10;;;;;;;0.80;0.80;;;;;;;;;;5075071;28;20424;-73
2022/08/05 12:19:57;;;;;;;0.70;0.60;;;;;;;;;;5074717;28;20430;-74
2022/08/05 12:22:44;;;;;;;0.70;0.60;;;;;;;;;;5073982;28;21040;-74
2022/08/05 12:25:11;;;;;;;0.70;0.60;;;;;;;;;;5073776;28;20429;-74
2022/08/05 12:27:41;;;;;;;1.17;1.07;;;;;;;;;;5073887;28;20427;-73
2022/08/05 12:30:21;;;;;;;0.80;0.80;;;;;;;;;;5073629;28;20450;-73
2022/08/05 12:32:57;;;;;;;0.80;0.70;;;;;;;;;;5059200;28;20883;-74
2022/08/05 12:35:45;;;;;;;0.80;0.70;;;;;;;;;;5077368;28;20459;-74
2022/08/05 12:38:14;;;;;;;0.80;0.60;;;;;;;;;;5076730;28;20434;-76
2022/08/05 12:40:41;;;;;;;1.20;1.00;;;;;;;;;;5059110;28;20477;-76
2022/08/05 12:43:10;;;;;;;0.70;0.60;;;;;;;;;;5078858;28;20485;-74
2022/08/05 12:45:51;;;;;;;0.70;0.60;;;;;;;;;;5069615;28;20443;-74
2022/08/05 12:48:19;;;;;;;0.70;0.60;;;;;;;;;;5077746;28;20446;-75
2022/08/05 12:51:07;;;;;;;1.03;0.97;;;;;;;;;;5077755;28;20507;-74
2022/08/05 12:53:59;;;;;;;0.70;0.53;;;;;;;;;;5076809;28;20462;-74
2022/08/05 12:56:25;;;;;;;0.80;0.70;;;;;;;;;;5076043;28;20485;-74
2022/08/05 12:59:13;;;;;;;0.80;0.80;;;;;;;;;;5074612;28;20435;-75
2022/08/05 13:01:59;;;;;;;0.90;0.70;;;;;;;;;;5059892;28;20442;-74
2022/08/05 13:04:35;;;;;;;2.80;1.73;;;;;;;;;;5074372;28;20438;-75
2022/08/05 13:07:19;;;;;;;1.40;0.70;;;;;;;;;;5074491;28;20465;-74
2022/08/05 13:10:11;;;;;;;1.17;1.10;;;;;;;;;;5074235;28;20511;-74
2022/08/05 13:12:39;;;;;;;0.80;0.60;;;;;;;;;;5075108;28;20765;-74
2022/08/05 13:15:28;;;;;;;10.13;1.17;;;;;;;;;;5076002;28;20454;-74
2022/08/05 13:18:16;;;;;;;1.30;1.20;;;;;;;;;;5074946;28;20430;-75
2022/08/05 13:20:45;;;;;;;0.70;0.60;;;;;;;;;;5074602;28;20470;-75
2022/08/05 13:23:14;;;;;;;0.70;0.57;;;;;;;;;;5073714;28;20797;-74
2022/08/05 13:25:41;;;;;;;0.90;0.80;;;;;;;;;;5074394;28;20436;-74
2022/08/05 13:28:25;;;;;;;1.00;0.90;;;;;;;;;;5074670;28;20407;-74
2022/08/05 13:30:52;;;;;;;0.80;0.80;;;;;;;;;;5058295;28;20556;-74
2022/08/05 13:33:21;;;;;;;1.40;1.30;;;;;;;;;;5075125;28;20534;-74
2022/08/05 13:36:07;;;;;;;1.00;0.90;;;;;;;;;;5070692;28;21066;-74
2022/08/05 13:38:35;;;;;;;1.27;0.80;;;;;;;;;;5074026;28;20443;-75
2022/08/05 13:41:08;;;;;;;0.73;0.63;;;;;;;;;;5073992;28;20502;-74
2022/08/05 13:43:35;;;;;;;1.30;1.20;;;;;;;;;;5075231;28;20494;-75
2022/08/05 13:46:20;;;;;;;0.80;0.80;;;;;;;;;;5075296;28;20427;-75
2022/08/05 13:49:08;;;;;;;0.73;0.57;;;;;;;;;;5074557;28;20518;-74
2022/08/05 13:51:36;;;;;;;1.00;0.90;;;;;;;;;;5074608;28;20447;-73
2022/08/05 13:54:07;;;;;;;0.70;0.60;;;;;;;;;;5073907;28;20813;-75
2022/08/05 13:56:39;;;;;;;0.87;0.70;;;;;;;;;;5063162;28;20435;-75
2022/08/05 13:59:17;;;;;;;0.90;0.73;;;;;;;;;;5059775;28;20522;-74
2022/08/05 14:01:46;;;;;;;0.70;0.60;;;;;;;;;;5072520;28;20803;-74
2022/08/05 14:07:16;;;;;;;1.00;0.90;;;;;;;;;;5073325;28;20450;-75
2022/08/05 14:10:04;;;;;;;1.40;1.30;;;;;;;;;;5074609;28;20419;-75
2022/08/05 14:12:34;;;;;;;0.80;0.80;;;;;;;;;;5073349;28;20432;-75
2022/08/05 14:15:01;;;;;;;0.80;0.80;;;;;;;;;;5072243;28;20462;-75
2022/08/05 14:17:47;;;;;;;0.83;0.70;;;;;;;;;;5073532;28;20466;-75
2022/08/05 14:20:17;;;;;;;0.73;0.63;;;;;;;;;;5074423;28;20449;-74
2022/08/05 14:22:44;;;;;;;1.03;0.93;;;;;;;;;;5075837;28;20458;-75
2022/08/05 14:25:17;;;;;;;0.80;0.70;;;;;;;;;;5077347;28;20454;-74
2022/08/05 14:27:49;;;;;;;1.00;0.90;;;;;;;;;;5076404;28;20502;-74
2022/08/05 14:30:17;;;;;;;1.33;1.23;;;;;;;;;;5079322;28;20965;-76
2022/08/05 14:32:46;;;;;;;0.80;0.70;;;;;;;;;;5076422;28;20471;-75
2022/08/05 14:35:18;;;;;;;1.37;0.90;;;;;;;;;;5061931;28;21038;-76
2022/08/05 14:37:48;;;;;;;1.10;1.00;;;;;;;;;;5076848;28;20733;-76
2022/08/05 14:40:20;;;;;;;0.97;0.90;;;;;;;;;;5072458;28;20418;-76
2022/08/05 14:42:50;;;;;;;0.80;0.70;;;;;;;;;;5059186;28;20454;-76
2022/08/05 14:45:17;;;;;;;0.80;0.70;;;;;;;;;;5077643;28;20479;-76
2022/08/05 14:47:44;;;;;;;0.80;0.70;;;;;;;;;;5077685;28;20511;-76
2022/08/05 14:50:32;;;;;;;0.80;0.73;;;;;;;;;;5074530;28;20924;-76
2022/08/05 14:53:06;;;;;;;2.93;0.77;;;;;;;;;;5076430;28;20419;-75
2022/08/05 14:55:33;;;;;;;0.80;0.70;;;;;;;;;;5077312;28;20433;-76
2022/08/05 14:58:06;;;;;;;0.77;0.60;;;;;;;;;;5075811;28;20481;-76
2022/08/05 15:00:38;;;;;;;1.10;1.00;;;;;;;;;;5075689;28;20538;-74
2022/08/05 15:03:25;;;;;;;0.70;0.70;;;;;;;;;;5075607;28;20431;-74
2022/08/05 15:06:00;;;;;;;0.70;0.60;;;;;;;;;;5076293;28;20799;-75
2022/08/05 15:08:39;;;;;;;0.80;0.70;;;;;;;;;;5076453;28;20445;-75
2022/08/05 15:11:27;;;;;;;0.70;0.60;;;;;;;;;;5075230;28;20419;-75
2022/08/05 15:14:14;;;;;;;0.80;0.60;;;;;;;;;;5066254;28;20562;-75
2022/08/05 15:17:01;;;;;;;0.70;0.60;;;;;;;;;;5065312;28;20861;-75
2022/08/05 15:19:30;;;;;;;0.70;0.60;;;;;;;;;;5078196;28;20408;-76
2022/08/05 15:21:59;;;;;;;0.80;0.70;;;;;;;;;;5078137;28;20526;-76
2022/08/05 15:24:27;;;;;;;1.37;1.00;;;;;;;;;;5075721;28;20439;-76
2022/08/05 15:26:54;;;;;;;0.77;0.63;;;;;;;;;;5073601;28;20985;-77
2022/08/05 15:29:23;;;;;;;0.70;0.63;;;;;;;;;;5077159;28;20447;-77
2022/08/05 15:31:55;;;;;;;0.80;0.80;;;;;;;;;;5075772;28;20431;-76
2022/08/05 15:34:27;;;;;;;0.80;0.60;;;;;;;;;;5069609;28;20471;-77
2022/08/05 15:37:00;;;;;;;0.70;0.60;;;;;;;;;;5072356;28;20553;-76
2022/08/05 15:39:39;;;;;;;0.80;0.70;;;;;;;;;;5078992;28;20438;-77
2022/08/05 15:42:29;;;;;;;0.70;0.60;;;;;;;;;;5077200;28;20470;-76
2022/08/05 15:45:16;;;;;;;0.80;0.70;;;;;;;;;;5073573;28;20502;-77
2022/08/05 15:48:03;;;;;;;0.70;0.70;;;;;;;;;;5056777;28;20439;-76